Time;durP1;ratioP1;P1;durP2;ratioP2;P2;SDS_P1;SDS_P2;PMS_P1;PMS_P2;Temp;Humidity;BMP_temperature;BMP_pressure;BME280_temperature;BME280_humidity;BME280_pressure;Samples;Min_cycle;Max_cycle;Signal;HPM_P1;HPM_P2
2022/04/15 00:01:22;;;;;;;4.07;3.53;;;14.20;99.90;;;;;;5013918;28;20195;-69
2022/04/15 00:03:49;;;;;;;5.50;3.50;;;14.00;99.90;;;;;;5013933;28;20262;-68
2022/04/15 00:06:15;;;;;;;4.63;3.60;;;14.00;99.90;;;;;;5013741;28;20418;-68
2022/04/15 00:08:41;;;;;;;4.20;3.80;;;14.00;99.90;;;;;;5013586;28;20452;-68
2022/04/15 00:11:07;;;;;;;5.03;3.67;;;14.00;99.90;;;;;;5014074;28;20512;-68
2022/04/15 00:13:33;;;;;;;4.17;3.87;;;14.00;99.90;;;;;;5013799;28;20225;-68
2022/04/15 00:16:09;;;;;;;4.13;3.83;;;13.90;99.90;;;;;;5013833;28;20163;-68
2022/04/15 00:18:35;;;;;;;4.53;4.13;;;13.90;99.90;;;;;;5013246;28;20983;-69
2022/04/15 00:21:01;;;;;;;4.83;3.47;;;14.00;99.90;;;;;;5013490;28;20422;-68
2022/04/15 00:23:27;;;;;;;5.60;3.80;;;14.00;99.90;;;;;;5013620;28;20447;-68
2022/04/15 00:25:54;;;;;;;4.60;3.83;;;14.00;99.90;;;;;;5013655;28;20809;-68
2022/04/15 00:28:20;;;;;;;4.00;3.50;;;14.00;99.90;;;;;;5013506;28;20425;-68
2022/04/15 00:30:46;;;;;;;3.67;3.47;;;14.00;99.90;;;;;;5013418;28;20453;-69
2022/04/15 00:33:12;;;;;;;5.73;3.83;;;13.90;99.90;;;;;;5013141;28;20500;-69
2022/04/15 00:35:38;;;;;;;4.33;3.90;;;13.80;99.90;;;;;;5013342;28;20732;-69
2022/04/15 00:38:03;;;;;;;5.27;3.90;;;13.80;99.90;;;;;;5013175;28;20270;-69
2022/04/15 00:40:29;;;;;;;4.43;4.03;;;13.70;99.90;;;;;;5013381;28;20192;-69
2022/04/15 00:42:55;;;;;;;4.50;4.10;;;13.70;99.90;;;;;;5013223;28;20191;-69
2022/04/15 00:45:21;;;;;;;5.57;3.40;;;13.50;99.90;;;;;;5013266;28;20173;-68
2022/04/15 00:47:51;;;;;;;12.07;10.37;;;13.60;99.90;;;;;;5013056;28;20702;-69
2022/04/15 00:50:28;;;;;;;8.13;6.30;;;13.60;99.90;;;;;;5012836;28;20348;-68
2022/04/15 00:52:59;;;;;;;5.13;4.40;;;13.60;99.90;;;;;;5013084;28;20512;-68
2022/04/15 00:55:25;;;;;;;4.77;4.00;;;13.60;99.90;;;;;;5013166;28;20444;-69
2022/04/15 00:57:58;;;;;;;4.43;4.03;;;13.60;99.90;;;;;;5013017;28;20414;-69
2022/04/15 01:00:28;;;;;;;5.33;3.77;;;13.60;99.90;;;;;;5011869;28;20430;-69
2022/04/15 01:02:56;;;;;;;7.60;4.80;;;13.70;99.90;;;;;;5013025;28;20434;-69
2022/04/15 01:05:22;;;;;;;6.50;4.20;;;13.70;99.90;;;;;;5012757;28;20410;-68
2022/04/15 01:07:55;;;;;;;4.03;3.57;;;13.70;99.90;;;;;;5012894;28;20425;-68
2022/04/15 01:10:21;;;;;;;6.93;4.87;;;13.70;99.90;;;;;;5012528;28;20645;-69
2022/04/15 01:12:51;;;;;;;6.93;4.30;;;13.70;99.90;;;;;;5013029;28;20587;-68
2022/04/15 01:15:19;;;;;;;5.57;4.33;;;13.70;99.90;;;;;;5012734;28;20461;-68
2022/04/15 01:17:44;;;;;;;5.17;4.43;;;13.70;99.90;;;;;;5012619;28;20998;-69
2022/04/15 01:20:11;;;;;;;4.70;3.80;;;13.70;99.90;;;;;;5012264;28;20595;-68
2022/04/15 01:22:42;;;;;;;5.43;4.20;;;13.80;99.90;;;;;;5012663;28;20261;-68
2022/04/15 01:25:15;;;;;;;6.57;4.97;;;13.70;99.90;;;;;;5012569;28;20513;-68
2022/04/15 01:27:46;;;;;;;4.13;3.83;;;13.70;99.90;;;;;;5012868;28;20414;-69
2022/04/15 01:30:20;;;;;;;8.63;4.90;;;13.60;99.90;;;;;;5012366;28;20422;-69
2022/04/15 01:32:46;;;;;;;5.23;4.57;;;13.60;99.90;;;;;;5012348;28;20525;-69
2022/04/15 01:35:13;;;;;;;4.40;4.10;;;13.70;99.90;;;;;;5012419;28;20425;-68
2022/04/15 01:37:40;;;;;;;6.80;4.40;;;13.70;99.90;;;;;;5012300;28;20453;-69
2022/04/15 01:40:07;;;;;;;5.43;4.40;;;13.70;99.90;;;;;;5012021;28;20453;-68
2022/04/15 01:42:34;;;;;;;7.33;4.57;;;13.80;99.90;;;;;;5012427;28;20437;-68
2022/04/15 01:44:59;;;;;;;5.23;4.60;;;13.80;99.90;;;;;;5012351;28;20476;-69
2022/04/15 01:47:25;;;;;;;4.60;4.30;;;13.80;99.90;;;;;;5012233;28;20422;-69
2022/04/15 01:49:51;;;;;;;4.13;3.80;;;13.70;99.90;;;;;;5011998;28;20171;-69
2022/04/15 01:52:17;;;;;;;5.40;4.30;;;13.70;99.90;;;;;;5012081;28;20793;-68
2022/04/15 01:54:42;;;;;;;5.40;4.97;;;13.60;99.90;;;;;;5012297;28;20181;-68
2022/04/15 01:57:08;;;;;;;4.50;4.10;;;13.60;99.90;;;;;;5012810;28;20516;-68
2022/04/15 01:59:33;;;;;;;4.17;3.63;;;13.50;99.90;;;;;;5011786;28;20234;-68
2022/04/15 02:01:59;;;;;;;4.67;4.30;;;13.50;99.90;;;;;;5012073;28;20203;-67
2022/04/15 02:04:25;;;;;;;6.97;4.60;;;13.60;99.90;;;;;;5012113;28;20245;-68
2022/04/15 02:06:51;;;;;;;6.30;4.33;;;13.60;99.90;;;;;;5012131;28;20175;-68
2022/04/15 02:09:17;;;;;;;4.50;4.03;;;13.50;99.90;;;;;;5011738;28;20464;-67
2022/04/15 02:11:44;;;;;;;4.17;3.70;;;13.40;99.90;;;;;;5014357;28;20441;-68
2022/04/15 02:14:10;;;;;;;5.83;4.60;;;13.40;99.90;;;;;;5016042;28;20205;-68
2022/04/15 02:16:36;;;;;;;6.20;4.73;;;13.30;99.90;;;;;;5016063;28;20915;-68
2022/04/15 02:19:02;;;;;;;6.93;4.60;;;13.40;99.90;;;;;;5015529;28;20449;-68
2022/04/15 02:21:27;;;;;;;4.73;3.70;;;13.40;99.90;;;;;;5015736;28;20445;-68
2022/04/15 02:23:53;;;;;;;7.73;4.20;;;13.40;99.90;;;;;;5015822;28;20418;-67
2022/04/15 02:26:18;;;;;;;3.90;3.60;;;13.30;99.90;;;;;;5015810;28;20181;-67
2022/04/15 02:28:44;;;;;;;5.20;4.70;;;13.30;99.90;;;;;;5015476;28;20286;-68
2022/04/15 02:31:09;;;;;;;5.73;4.30;;;13.30;99.90;;;;;;5015664;28;20198;-67
2022/04/15 02:33:35;;;;;;;6.13;4.43;;;13.20;99.90;;;;;;5015704;28;20175;-67
2022/04/15 02:36:00;;;;;;;5.63;4.00;;;13.30;99.90;;;;;;5015688;28;20229;-68
2022/04/15 02:38:26;;;;;;;4.80;4.47;;;13.40;99.90;;;;;;5015110;28;20207;-68
2022/04/15 02:40:51;;;;;;;6.00;4.30;;;13.30;99.90;;;;;;5015643;28;20637;-67
2022/04/15 02:43:18;;;;;;;7.47;4.60;;;13.30;99.90;;;;;;5015489;28;20202;-69
2022/04/15 02:45:44;;;;;;;9.50;5.10;;;13.30;99.90;;;;;;5015509;28;20575;-68
2022/04/15 02:48:10;;;;;;;6.57;5.10;;;13.30;99.90;;;;;;5015128;28;20935;-72
2022/04/15 02:50:36;;;;;;;4.63;4.23;;;13.20;99.90;;;;;;5015249;28;20825;-68
2022/04/15 02:53:01;;;;;;;4.80;4.40;;;13.20;99.90;;;;;;5015239;28;20437;-67
2022/04/15 02:55:27;;;;;;;5.57;5.00;;;13.30;99.90;;;;;;5015503;28;20171;-68
2022/04/15 02:57:53;;;;;;;5.03;4.50;;;13.30;99.90;;;;;;5015202;28;20536;-68
2022/04/15 03:00:19;;;;;;;4.60;4.20;;;13.30;99.90;;;;;;5014878;28;20209;-69
2022/04/15 03:02:44;;;;;;;8.37;4.73;;;13.30;99.90;;;;;;5014955;28;20193;-70
2022/04/15 03:05:10;;;;;;;5.53;4.70;;;13.30;99.90;;;;;;5015105;28;20646;-68
2022/04/15 03:07:37;;;;;;;6.10;5.53;;;13.20;99.90;;;;;;5014991;28;20302;-67
2022/04/15 03:10:04;;;;;;;9.10;5.13;;;13.10;99.90;;;;;;5014695;28;20544;-67
2022/04/15 03:12:36;;;;;;;5.70;5.20;;;13.10;99.90;;;;;;5014870;28;20440;-67
2022/04/15 03:15:04;;;;;;;4.53;4.13;;;13.00;99.90;;;;;;5015060;28;20881;-68
2022/04/15 03:17:30;;;;;;;5.63;4.90;;;13.00;99.90;;;;;;5014807;28;20504;-68
2022/04/15 03:19:55;;;;;;;7.63;4.43;;;13.10;99.90;;;;;;5014467;28;20986;-68
2022/04/15 03:22:21;;;;;;;6.60;5.57;;;13.10;99.90;;;;;;5013877;28;20579;-68
2022/04/15 03:24:48;;;;;;;5.17;4.67;;;13.10;99.90;;;;;;5014915;28;20167;-68
2022/04/15 03:27:14;;;;;;;9.03;5.83;;;13.10;99.90;;;;;;5014714;28;20171;-67
2022/04/15 03:29:40;;;;;;;6.07;5.57;;;13.00;99.90;;;;;;5014283;28;20527;-68
2022/04/15 03:32:05;;;;;;;5.50;5.00;;;13.00;99.90;;;;;;5014472;28;20193;-70
2022/04/15 03:34:31;;;;;;;6.27;5.47;;;12.90;99.90;;;;;;5014421;28;20175;-67
2022/04/15 03:36:56;;;;;;;5.30;4.80;;;12.90;99.90;;;;;;5014380;28;20186;-68
2022/04/15 03:39:22;;;;;;;5.60;5.10;;;12.90;99.90;;;;;;5014374;28;20633;-69
2022/04/15 03:41:47;;;;;;;5.73;5.20;;;12.90;99.90;;;;;;5014328;28;20206;-68
2022/04/15 03:44:13;;;;;;;6.10;5.60;;;12.80;99.90;;;;;;5014444;28;20541;-68
2022/04/15 03:46:39;;;;;;;6.47;4.93;;;12.80;99.90;;;;;;5014309;28;20179;-70
2022/04/15 03:49:05;;;;;;;6.80;6.13;;;12.80;99.90;;;;;;5013866;28;20202;-69
2022/04/15 03:51:30;;;;;;;5.07;4.63;;;12.70;99.90;;;;;;5014477;28;20473;-67
2022/04/15 03:53:56;;;;;;;6.47;5.50;;;12.60;99.90;;;;;;5014371;28;20422;-67
2022/04/15 03:56:22;;;;;;;6.37;5.60;;;12.50;99.90;;;;;;5014175;28;20167;-68
2022/04/15 03:58:47;;;;;;;7.63;5.87;;;12.50;99.90;;;;;;5013875;28;20671;-70
2022/04/15 04:01:13;;;;;;;6.47;5.87;;;12.50;99.90;;;;;;5013971;28;20645;-68
2022/04/15 04:03:38;;;;;;;7.30;6.60;;;12.40;99.90;;;;;;5013823;28;20224;-67
2022/04/15 04:06:04;;;;;;;6.47;5.73;;;12.40;99.90;;;;;;5014009;28;20175;-68
2022/04/15 04:08:29;;;;;;;10.63;6.53;;;12.40;99.90;;;;;;5013587;28;20218;-68
2022/04/15 04:10:55;;;;;;;5.80;5.30;;;12.30;99.90;;;;;;5012574;28;20645;-68
2022/04/15 04:13:21;;;;;;;6.90;5.83;;;12.30;99.90;;;;;;5013713;28;20653;-69
2022/04/15 04:15:46;;;;;;;5.50;5.00;;;12.20;99.90;;;;;;5013743;28;20174;-68
2022/04/15 04:18:14;;;;;;;8.17;6.00;;;12.10;99.90;;;;;;5013383;28;20171;-68
2022/04/15 04:20:40;;;;;;;5.73;4.87;;;12.10;99.90;;;;;;5013685;28;20247;-68
2022/04/15 04:23:06;;;;;;;5.77;5.27;;;12.00;99.90;;;;;;5013582;28;20444;-69
2022/04/15 04:25:31;;;;;;;5.90;5.40;;;12.00;99.90;;;;;;5013658;28;20928;-67
2022/04/15 04:27:57;;;;;;;6.60;5.97;;;11.90;99.90;;;;;;5013513;28;20171;-68
2022/04/15 04:30:23;;;;;;;8.87;5.60;;;11.90;99.90;;;;;;5013243;28;20199;-68
2022/04/15 04:32:52;;;;;;;7.50;5.37;;;11.80;99.90;;;;;;5013306;28;20524;-70
2022/04/15 04:35:19;;;;;;;7.00;5.80;;;11.80;99.90;;;;;;5013486;28;20171;-68
2022/04/15 04:37:45;;;;;;;9.67;7.27;;;11.80;99.90;;;;;;5013363;28;20845;-68
2022/04/15 04:40:11;;;;;;;12.17;7.63;;;11.90;99.90;;;;;;5013083;28;20924;-68
2022/04/15 04:42:37;;;;;;;7.53;6.83;;;11.80;99.90;;;;;;5013256;28;20438;-68
2022/04/15 04:45:03;;;;;;;7.80;7.00;;;11.80;99.90;;;;;;5013293;28;20866;-67
2022/04/15 04:47:29;;;;;;;8.90;7.90;;;11.80;99.90;;;;;;5013108;28;20790;-67
2022/04/15 04:49:55;;;;;;;9.87;7.13;;;11.80;99.90;;;;;;5012949;28;20461;-68
2022/04/15 04:52:24;;;;;;;7.23;6.60;;;11.80;99.90;;;;;;5013131;28;20190;-68
2022/04/15 04:54:50;;;;;;;7.13;6.33;;;11.90;99.90;;;;;;5013099;28;20418;-70
2022/04/15 04:57:16;;;;;;;7.30;6.60;;;12.00;99.90;;;;;;5013059;28;20786;-68
2022/04/15 04:59:42;;;;;;;11.10;7.60;;;12.00;99.90;;;;;;5012744;28;20644;-68
2022/04/15 05:02:10;;;;;;;7.77;6.97;;;12.10;99.90;;;;;;5012800;28;20357;-67
2022/04/15 05:04:36;;;;;;;7.87;6.20;;;12.20;99.90;;;;;;5012903;28;20167;-68
2022/04/15 05:07:02;;;;;;;7.53;6.77;;;12.20;99.90;;;;;;5012861;28;20426;-68
2022/04/15 05:09:27;;;;;;;10.40;6.20;;;12.40;99.90;;;;;;5012476;28;20492;-69
2022/04/15 05:11:53;;;;;;;7.60;6.67;;;12.50;99.90;;;;;;5012719;28;20968;-67
2022/04/15 05:14:19;;;;;;;6.60;6.00;;;12.50;99.90;;;;;;5012698;28;20171;-68
2022/04/15 05:16:44;;;;;;;7.47;6.77;;;12.50;99.90;;;;;;5012710;28;20171;-67
2022/04/15 05:19:10;;;;;;;10.57;6.80;;;12.50;99.90;;;;;;5012341;28;20516;-67
2022/04/15 05:21:35;;;;;;;7.40;6.70;;;12.50;99.90;;;;;;5012690;28;20595;-68
2022/04/15 05:24:01;;;;;;;7.23;6.53;;;12.60;99.90;;;;;;5012619;28;20225;-68
2022/04/15 05:26:29;;;;;;;7.73;6.93;;;12.70;99.90;;;;;;5012597;28;20175;-68
2022/04/15 05:28:54;;;;;;;6.77;6.17;;;12.80;99.90;;;;;;5012091;28;20610;-68
2022/04/15 05:31:20;;;;;;;7.47;5.80;;;13.00;99.90;;;;;;5012385;28;20472;-68
2022/04/15 05:33:45;;;;;;;7.33;6.63;;;13.10;99.90;;;;;;5012436;28;20636;-69
2022/04/15 05:36:11;;;;;;;6.83;6.13;;;13.20;99.90;;;;;;5012497;28;20404;-68
2022/04/15 05:38:36;;;;;;;6.87;6.27;;;13.20;99.90;;;;;;5012047;28;20203;-68
2022/04/15 05:41:02;;;;;;;6.73;6.20;;;13.30;99.90;;;;;;5012334;28;20270;-68
2022/04/15 05:43:28;;;;;;;8.60;5.63;;;13.40;99.90;;;;;;5012326;28;20254;-68
2022/04/15 05:45:53;;;;;;;7.17;6.60;;;13.40;99.90;;;;;;5011887;28;20498;-68
2022/04/15 05:48:19;;;;;;;7.67;6.90;;;13.50;99.90;;;;;;5011921;28;20250;-68
2022/04/15 05:50:44;;;;;;;6.67;6.07;;;13.70;99.90;;;;;;5012298;28;20233;-67
2022/04/15 05:53:13;;;;;;;7.50;6.60;;;13.80;99.90;;;;;;5012244;28;20281;-68
2022/04/15 05:55:39;;;;;;;6.83;6.20;;;14.00;99.90;;;;;;5012235;28;20212;-68
2022/04/15 05:58:05;;;;;;;6.80;6.20;;;14.20;99.90;;;;;;5012007;28;20785;-70
2022/04/15 06:00:31;;;;;;;7.57;6.87;;;14.30;99.90;;;;;;5011976;28;20202;-68
2022/04/15 06:02:56;;;;;;;9.10;6.80;;;14.50;99.90;;;;;;5012078;28;20528;-68
2022/04/15 06:05:24;;;;;;;7.70;7.00;;;14.60;99.90;;;;;;5012142;28;20175;-69
2022/04/15 06:07:50;;;;;;;7.70;7.10;;;14.80;99.90;;;;;;5012157;28;20171;-67
2022/04/15 06:10:16;;;;;;;7.53;6.90;;;15.00;99.90;;;;;;5011764;28;20830;-67
2022/04/15 06:15:31;;;;;;;7.30;6.60;;;15.20;99.90;;;;;;5012040;28;20178;-68
2022/04/15 06:17:57;;;;;;;7.87;7.07;;;15.30;99.90;;;;;;5012050;28;20421;-68
2022/04/15 06:20:23;;;;;;;7.90;7.20;;;15.60;99.90;;;;;;5011768;28;20496;-68
2022/04/15 06:22:49;;;;;;;10.87;7.70;;;15.90;99.90;;;;;;5011977;28;20816;-67
2022/04/15 06:25:14;;;;;;;8.40;7.70;;;16.10;99.90;;;;;;5011872;28;20413;-69
2022/04/15 06:27:40;;;;;;;7.23;6.50;;;16.30;99.90;;;;;;5011913;28;20182;-69
2022/04/15 06:30:08;;;;;;;7.90;7.20;;;16.40;99.90;;;;;;5011738;28;20238;-67
2022/04/15 06:32:34;;;;;;;7.63;7.03;;;16.50;99.90;;;;;;5011749;28;20186;-68
2022/04/15 06:35:00;;;;;;;9.20;8.00;;;16.60;99.90;;;;;;5011950;28;20476;-67
2022/04/15 06:37:25;;;;;;;9.37;8.60;;;16.70;99.90;;;;;;5014107;28;20833;-69
2022/04/15 06:39:51;;;;;;;10.27;9.27;;;16.80;99.90;;;;;;5021239;28;20179;-70
2022/04/15 06:42:23;;;;;;;10.03;9.13;;;16.90;99.90;;;;;;5020055;28;20665;-66
2022/04/15 06:44:50;;;;;;;12.67;9.67;;;16.90;99.90;;;;;;5020262;28;20635;-66
2022/04/15 06:47:16;;;;;;;10.57;9.37;;;16.90;99.90;;;;;;5029711;28;20509;-68
2022/04/15 06:49:42;;;;;;;10.03;9.13;;;17.00;99.90;;;;;;5031118;28;20460;-68
2022/04/15 06:52:08;;;;;;;11.67;9.20;;;16.90;99.90;;;;;;5023730;28;20939;-67
2022/04/15 06:54:34;;;;;;;11.17;10.07;;;16.90;99.90;;;;;;5028366;28;20429;-67
2022/04/15 06:57:00;;;;;;;13.83;12.57;;;16.80;99.90;;;;;;5030541;28;20165;-71
2022/04/15 06:59:26;;;;;;;12.07;10.90;;;16.90;99.90;;;;;;5033410;28;20166;-67
2022/04/15 07:01:51;;;;;;;12.40;9.93;;;17.30;99.90;;;;;;5032606;28;20664;-69
2022/04/15 07:04:17;;;;;;;11.27;10.27;;;17.50;99.90;;;;;;5034255;28;20425;-71
2022/04/15 07:06:43;;;;;;;11.73;10.70;;;17.80;99.90;;;;;;5034377;28;20461;-68
2022/04/15 07:09:08;;;;;;;14.63;11.50;;;17.90;99.90;;;;;;5033911;28;20194;-68
2022/04/15 07:11:34;;;;;;;12.53;11.33;;;18.10;99.90;;;;;;5034531;28;20217;-69
2022/04/15 07:14:00;;;;;;;12.50;11.40;;;18.20;99.90;;;;;;5034811;28;20206;-66
2022/04/15 07:16:25;;;;;;;12.67;11.37;;;18.20;99.90;;;;;;5034821;28;20530;-68
2022/04/15 07:18:52;;;;;;;13.10;11.00;;;18.50;99.90;;;;;;5034260;28;20178;-67
2022/04/15 07:21:18;;;;;;;12.07;10.93;;;18.80;99.90;;;;;;5034636;28;20167;-68
2022/04/15 07:23:44;;;;;;;10.93;9.93;;;18.90;99.90;;;;;;5034446;28;20456;-69
2022/04/15 07:26:10;;;;;;;11.50;10.30;;;18.90;99.90;;;;;;5034427;28;20425;-69
2022/04/15 07:28:35;;;;;;;14.53;11.73;;;18.80;99.90;;;;;;5034011;28;20453;-69
2022/04/15 07:31:01;;;;;;;15.40;13.90;;;18.70;99.90;;;;;;5033103;28;20177;-68
2022/04/15 07:33:27;;;;;;;14.03;12.60;;;18.60;99.90;;;;;;5034410;28;20192;-68
2022/04/15 07:35:53;;;;;;;17.00;12.57;;;18.60;99.90;;;;;;5034350;28;20166;-68
2022/04/15 07:38:18;;;;;;;15.07;13.47;;;18.90;99.90;;;;;;5033778;28;20186;-69
2022/04/15 07:40:44;;;;;;;15.60;13.50;;;19.10;99.90;;;;;;5034153;28;20197;-68
2022/04/15 07:43:09;;;;;;;13.73;12.43;;;19.20;99.90;;;;;;5034124;28;20197;-69
2022/04/15 07:45:35;;;;;;;14.60;13.23;;;19.60;99.90;;;;;;5034154;28;20632;-70
2022/04/15 07:48:00;;;;;;;14.57;13.17;;;19.60;99.90;;;;;;5034112;28;20258;-68
2022/04/15 07:50:26;;;;;;;15.00;13.17;;;19.70;99.90;;;;;;5033785;28;20209;-69
2022/04/15 07:52:57;;;;;;;15.27;13.83;;;19.80;99.90;;;;;;5033815;28;20340;-68
2022/04/15 07:55:22;;;;;;;12.90;11.57;;;20.10;99.90;;;;;;5034962;28;20170;-72
2022/04/15 07:57:48;;;;;;;15.87;14.17;;;20.40;99.90;;;;;;5033899;28;20420;-71
2022/04/15 08:00:14;;;;;;;16.43;14.93;;;20.40;99.90;;;;;;5033572;28;20178;-71
2022/04/15 08:02:40;;;;;;;14.40;12.60;;;20.60;99.90;;;;;;5033770;28;20672;-71
2022/04/15 08:05:06;;;;;;;19.20;14.60;;;20.60;99.90;;;;;;5034055;28;20996;-71
2022/04/15 08:07:32;;;;;;;16.30;14.90;;;21.00;99.90;;;;;;5033644;28;20417;-71
2022/04/15 08:09:57;;;;;;;16.07;14.37;;;21.20;99.90;;;;;;5032868;28;20468;-71
2022/04/15 08:12:23;;;;;;;15.30;13.90;;;21.20;99.60;;;;;;5033547;28;20186;-71
2022/04/15 08:14:48;;;;;;;15.97;14.53;;;21.10;99.00;;;;;;5033735;28;20517;-72
2022/04/15 08:17:14;;;;;;;15.70;14.13;;;21.10;98.80;;;;;;5033484;28;20693;-72
2022/04/15 08:19:40;;;;;;;16.03;14.37;;;21.20;98.90;;;;;;5033303;28;20163;-72
2022/04/15 08:22:09;;;;;;;15.93;14.43;;;21.70;99.00;;;;;;5033371;28;20217;-72
2022/04/15 08:24:42;;;;;;;18.00;14.63;;;22.20;97.40;;;;;;5033344;28;20162;-72
2022/04/15 08:27:08;;;;;;;15.43;14.07;;;22.30;96.00;;;;;;5033399;28;20416;-72
2022/04/15 08:29:38;;;;;;;15.07;13.67;;;22.40;95.40;;;;;;5032969;28;20449;-73
2022/04/15 08:32:08;;;;;;;15.73;14.30;;;22.40;95.20;;;;;;5033168;28;20495;-72
2022/04/15 08:34:37;;;;;;;16.43;15.07;;;22.20;95.40;;;;;;5033132;28;20417;-72
2022/04/15 08:37:04;;;;;;;15.77;14.27;;;22.50;94.30;;;;;;5033007;28;20443;-72
2022/04/15 08:39:29;;;;;;;14.97;13.77;;;22.70;94.20;;;;;;5032816;28;20965;-72
2022/04/15 08:41:57;;;;;;;14.93;13.40;;;23.00;92.60;;;;;;5033042;28;20437;-73
2022/04/15 08:44:23;;;;;;;17.80;16.20;;;23.50;92.00;;;;;;5033083;28;20544;-70
2022/04/15 08:46:50;;;;;;;18.97;14.90;;;23.70;90.30;;;;;;5032951;28;20421;-73
2022/04/15 08:49:19;;;;;;;14.27;13.07;;;23.80;90.00;;;;;;5032510;28;20465;-70
2022/04/15 08:51:49;;;;;;;15.47;14.17;;;23.50;90.10;;;;;;5032789;28;20432;-72
2022/04/15 08:54:15;;;;;;;14.47;13.37;;;23.60;89.00;;;;;;5032929;28;20426;-70
2022/04/15 08:56:42;;;;;;;15.30;13.53;;;23.80;87.50;;;;;;5032773;28;20923;-72
2022/04/15 08:59:07;;;;;;;14.40;12.93;;;24.00;86.60;;;;;;5032523;28;20173;-70
2022/04/15 09:01:33;;;;;;;13.63;12.53;;;24.00;82.70;;;;;;5032993;28;20437;-68
2022/04/15 09:04:00;;;;;;;15.50;14.10;;;24.40;78.50;;;;;;5032674;28;20213;-70
2022/04/15 09:06:32;;;;;;;15.17;13.77;;;24.60;79.60;;;;;;5032534;28;20170;-73
2022/04/15 09:09:08;;;;;;;17.60;16.10;;;24.60;79.60;;;;;;5032233;28;20456;-70
2022/04/15 09:11:36;;;;;;;16.10;14.80;;;24.90;78.90;;;;;;5032460;28;20454;-71
2022/04/15 09:14:07;;;;;;;17.47;15.97;;;25.00;77.90;;;;;;5032368;28;20424;-71
2022/04/15 09:16:37;;;;;;;18.27;16.57;;;24.10;79.20;;;;;;5032553;28;20508;-70
2022/04/15 09:19:05;;;;;;;17.27;15.97;;;23.60;79.60;;;;;;5032381;28;20456;-70
2022/04/15 09:21:31;;;;;;;16.83;15.43;;;23.20;81.20;;;;;;5030441;28;20575;-70
2022/04/15 09:23:56;;;;;;;18.50;16.90;;;23.80;81.20;;;;;;5032294;28;20492;-70
2022/04/15 09:26:23;;;;;;;16.53;15.13;;;24.60;77.90;;;;;;5032380;28;20185;-71
2022/04/15 09:28:49;;;;;;;16.17;14.73;;;24.80;77.70;;;;;;5031775;28;20241;-71
2022/04/15 09:31:17;;;;;;;18.00;16.30;;;24.90;76.40;;;;;;5032242;28;20876;-71
2022/04/15 09:33:56;;;;;;;18.73;17.20;;;25.30;74.40;;;;;;5032204;28;20413;-71
2022/04/15 09:36:26;;;;;;;20.27;18.73;;;24.70;73.60;;;;;;5032193;28;20447;-73
2022/04/15 09:38:56;;;;;;;16.70;15.20;;;24.50;73.20;;;;;;5031864;28;20857;-71
2022/04/15 09:41:24;;;;;;;16.43;15.10;;;25.70;73.20;;;;;;5031980;28;20496;-72
2022/04/15 09:43:54;;;;;;;16.50;15.07;;;26.30;69.30;;;;;;5032118;28;20495;-73
2022/04/15 09:46:20;;;;;;;18.47;17.07;;;27.30;68.50;;;;;;5032219;28;20417;-70
2022/04/15 09:48:58;;;;;;;17.33;16.03;;;27.80;64.20;;;;;;5031555;28;20480;-71
2022/04/15 09:51:24;;;;;;;16.63;15.30;;;27.80;64.00;;;;;;5031851;28;20436;-73
2022/04/15 09:53:52;;;;;;;16.23;14.93;;;27.90;62.40;;;;;;5031907;28;20429;-72
2022/04/15 09:56:21;;;;;;;17.23;16.03;;;28.00;61.60;;;;;;5031871;28;20424;-71
2022/04/15 09:58:52;;;;;;;14.57;13.43;;;28.00;58.80;;;;;;5031606;28;20930;-73
2022/04/15 10:01:17;;;;;;;17.27;15.90;;;27.10;59.80;;;;;;5031839;28;20475;-71
2022/04/15 10:03:45;;;;;;;14.70;13.60;;;26.30;60.00;;;;;;5031751;28;20433;-73
2022/04/15 10:06:12;;;;;;;12.80;11.90;;;25.50;61.70;;;;;;5031856;28;20173;-73
2022/04/15 10:08:40;;;;;;;14.43;13.33;;;26.30;60.70;;;;;;5031492;28;20460;-71
2022/04/15 10:11:09;;;;;;;14.83;13.53;;;28.10;57.60;;;;;;5032065;28;20417;-72
2022/04/15 10:13:36;;;;;;;14.20;13.20;;;28.50;57.40;;;;;;5032079;28;20508;-71
2022/04/15 10:16:02;;;;;;;11.70;10.77;;;29.00;57.00;;;;;;5031868;28;20417;-70
2022/04/15 10:18:29;;;;;;;16.47;15.27;;;29.10;56.10;;;;;;5031463;28;20970;-71
2022/04/15 10:20:55;;;;;;;15.97;14.67;;;28.90;55.20;;;;;;5031678;28;20413;-71
2022/04/15 10:23:22;;;;;;;16.87;15.47;;;27.80;55.90;;;;;;5030584;28;21069;-71
2022/04/15 10:25:49;;;;;;;16.80;15.37;;;26.40;57.80;;;;;;5031702;28;20648;-72
2022/04/15 10:28:20;;;;;;;15.93;14.83;;;25.00;59.80;;;;;;5031272;28;20425;-72
2022/04/15 10:31:03;;;;;;;15.03;13.93;;;25.80;59.70;;;;;;5031569;28;20519;-73
2022/04/15 10:33:33;;;;;;;16.20;14.80;;;27.00;59.00;;;;;;5034947;28;20984;-71
2022/04/15 10:36:22;;;;;;;13.37;12.37;;;26.30;58.50;;;;;;5035408;28;20773;-71
2022/04/15 10:39:10;;;;;;;14.37;13.17;;;27.20;58.40;;;;;;5035085;28;20447;-71
2022/04/15 10:41:41;;;;;;;12.00;11.00;;;28.40;55.10;;;;;;5035072;28;20444;-71
2022/04/15 10:44:23;;;;;;;13.50;12.30;;;29.10;54.10;;;;;;5035186;28;20490;-71
2022/04/15 10:46:48;;;;;;;13.80;12.80;;;29.60;53.70;;;;;;5035229;28;20460;-71
2022/04/15 10:49:26;;;;;;;15.27;14.07;;;29.30;53.90;;;;;;5034644;28;20503;-70
2022/04/15 10:51:59;;;;;;;13.43;12.43;;;29.00;53.30;;;;;;5035054;28;20190;-71
2022/04/15 10:54:40;;;;;;;14.50;13.30;;;28.30;54.40;;;;;;5035033;28;20930;-71
2022/04/15 10:57:09;;;;;;;13.90;12.57;;;28.30;55.40;;;;;;5035002;28;20417;-70
2022/04/15 11:02:37;;;;;;;16.20;14.80;;;28.00;55.40;;;;;;5034705;28;20464;-71
2022/04/15 11:05:05;;;;;;;14.67;13.53;;;29.10;53.70;;;;;;5034880;28;20428;-71
2022/04/15 11:07:41;;;;;;;13.30;12.30;;;30.20;52.80;;;;;;5034684;28;20421;-71
2022/04/15 11:10:37;;;;;;;12.70;11.60;;;31.50;50.90;;;;;;5034320;28;20471;-71
2022/04/15 11:13:04;;;;;;;11.13;10.23;;;31.10;51.00;;;;;;5033403;28;20512;-71
2022/04/15 11:16:03;;;;;;;11.07;10.17;;;29.20;51.40;;;;;;5034834;28;20839;-71
2022/04/15 11:18:53;;;;;;;12.87;11.67;;;27.90;51.90;;;;;;5034242;28;20717;-71
2022/04/15 11:21:21;;;;;;;14.10;12.93;;;29.40;52.40;;;;;;5034372;28;20445;-71
2022/04/15 11:23:50;;;;;;;13.73;12.67;;;30.80;50.30;;;;;;5034485;28;20423;-71
2022/04/15 11:26:16;;;;;;;11.83;10.93;;;30.70;49.80;;;;;;5034491;28;20417;-71
2022/04/15 11:28:45;;;;;;;11.70;10.60;;;29.70;49.80;;;;;;5034133;28;21030;-71
2022/04/15 11:31:25;;;;;;;10.83;10.10;;;28.40;51.00;;;;;;5034421;28;20259;-73
2022/04/15 11:33:52;;;;;;;10.67;9.70;;;27.00;52.40;;;;;;5034282;28;20504;-71
2022/04/15 11:36:18;;;;;;;9.07;8.33;;;26.40;52.50;;;;;;5034334;28;20413;-71
2022/04/15 11:38:48;;;;;;;8.70;8.00;;;27.10;51.40;;;;;;5033933;28;20448;-72
2022/04/15 11:41:19;;;;;;;8.80;8.10;;;29.20;49.30;;;;;;5034103;28;20236;-71
2022/04/15 11:43:57;;;;;;;9.10;8.30;;;30.50;47.50;;;;;;5033425;28;20428;-71
2022/04/15 11:46:23;;;;;;;8.73;8.03;;;30.60;45.40;;;;;;5034129;28;20512;-71
2022/04/15 11:48:50;;;;;;;8.93;8.23;;;29.40;46.80;;;;;;5033648;28;20453;-71
2022/04/15 11:51:17;;;;;;;9.30;8.37;;;28.10;47.50;;;;;;5033868;28;20413;-71
2022/04/15 11:53:43;;;;;;;9.60;8.80;;;28.30;48.60;;;;;;5033945;28;20413;-72
2022/04/15 11:56:09;;;;;;;11.90;10.87;;;29.20;48.20;;;;;;5034055;28;20836;-72
2022/04/15 11:58:35;;;;;;;10.60;9.80;;;31.40;47.10;;;;;;5033592;28;20609;-72
2022/04/15 12:01:02;;;;;;;10.57;9.83;;;33.00;46.00;;;;;;5033857;28;20455;-71
2022/04/15 12:03:28;;;;;;;11.30;10.40;;;32.70;43.90;;;;;;5033832;28;20445;-72
2022/04/15 12:05:57;;;;;;;11.30;10.40;;;32.10;44.10;;;;;;5033833;28;20425;-71
2022/04/15 12:08:24;;;;;;;12.50;11.47;;;31.70;44.60;;;;;;5033381;28;20417;-71
2022/04/15 12:10:50;;;;;;;9.30;8.50;;;31.50;43.90;;;;;;5033718;28;20437;-72
2022/04/15 12:13:17;;;;;;;11.63;10.63;;;31.20;45.00;;;;;;5033687;28;20436;-72
2022/04/15 12:15:44;;;;;;;9.63;8.83;;;30.60;44.30;;;;;;5033765;28;20667;-71
2022/04/15 12:18:10;;;;;;;9.10;8.30;;;31.10;43.30;;;;;;5033365;28;20421;-70
2022/04/15 12:20:38;;;;;;;6.90;6.40;;;32.50;41.70;;;;;;5033394;28;20436;-72
2022/04/15 12:23:08;;;;;;;8.80;8.13;;;32.50;41.60;;;;;;5033429;28;20452;-72
2022/04/15 12:31:03;;;;;;;9.30;8.40;;;28.80;42.40;;;;;;5033613;28;20427;-73
2022/04/15 12:33:28;;;;;;;9.37;8.50;;;27.30;44.40;;;;;;5033198;28;20503;-73
2022/04/15 12:35:57;;;;;;;11.10;10.00;;;27.50;45.50;;;;;;5033227;28;20826;-72
2022/04/15 12:38:23;;;;;;;9.93;8.50;;;29.00;45.00;;;;;;5032707;28;20190;-73
2022/04/15 12:40:49;;;;;;;10.33;9.43;;;29.70;44.30;;;;;;5033218;28;20440;-73
2022/04/15 12:43:16;;;;;;;10.87;10.10;;;30.60;42.60;;;;;;5033016;28;20271;-73
2022/04/15 12:45:56;;;;;;;10.40;9.40;;;30.20;42.30;;;;;;5033005;28;20194;-72
2022/04/15 12:48:23;;;;;;;7.77;7.10;;;28.50;43.50;;;;;;5032755;28;20428;-73
2022/04/15 12:50:54;;;;;;;8.57;7.77;;;27.00;44.40;;;;;;5032905;28;20791;-72